createdAt,value
2022-07-27T00:01:54.051Z,26.10
2022-07-27T00:04:21.868Z,26.10
2022-07-27T00:06:49.621Z,26.10
2022-07-27T00:09:18.286Z,26.10
2022-07-27T00:11:46.065Z,26.00
2022-07-27T00:14:13.783Z,26.10
2022-07-27T00:16:41.495Z,26.10
2022-07-27T00:19:11.010Z,26.00
2022-07-27T00:21:44.565Z,26.00
2022-07-27T00:24:14.136Z,26.00
2022-07-27T00:26:41.903Z,25.90
2022-07-27T00:29:10.012Z,25.90
2022-07-27T00:31:37.991Z,25.90
2022-07-27T00:34:05.818Z,25.90
2022-07-27T00:36:34.901Z,25.90
2022-07-27T00:39:02.637Z,26.00
2022-07-27T00:41:30.427Z,26.00
2022-07-27T00:43:59.003Z,26.00
2022-07-27T00:46:28.477Z,26.00
2022-07-27T00:48:56.278Z,26.00
2022-07-27T00:51:24.407Z,26.00
2022-07-27T00:53:54.078Z,26.00
2022-07-27T00:56:22.030Z,26.00
2022-07-27T00:58:50.956Z,26.00
2022-07-27T01:01:19.833Z,26.00
2022-07-27T01:03:47.953Z,26.00
2022-07-27T01:06:15.853Z,26.00
2022-07-27T01:08:43.559Z,26.00
2022-07-27T01:11:11.866Z,26.00
2022-07-27T01:13:39.613Z,26.00
2022-07-27T01:16:07.701Z,25.90
2022-07-27T01:18:36.747Z,25.90
2022-07-27T01:21:05.280Z,25.90
2022-07-27T01:23:34.469Z,25.90
2022-07-27T01:26:02.172Z,25.90
2022-07-27T01:28:30.096Z,25.90
2022-07-27T01:30:57.917Z,25.90
2022-07-27T01:33:26.756Z,25.90
2022-07-27T01:35:55.302Z,25.90
2022-07-27T01:38:23.041Z,25.90
2022-07-27T01:40:52.226Z,25.90
2022-07-27T01:43:19.980Z,25.90
2022-07-27T01:45:47.734Z,25.90
2022-07-27T01:48:15.452Z,25.90
2022-07-27T01:50:47.539Z,25.90
2022-07-27T01:53:15.533Z,25.90
2022-07-27T01:55:43.249Z,25.90
2022-07-27T01:58:12.254Z,25.80
2022-07-27T02:00:40.570Z,25.80
2022-07-27T02:03:08.928Z,25.80
2022-07-27T02:05:37.089Z,25.80
2022-07-27T02:08:05.054Z,25.80
2022-07-27T02:10:33.155Z,25.80
2022-07-27T02:12:59.881Z,25.80
2022-07-27T02:15:42.190Z,25.80
2022-07-27T02:18:26.814Z,25.80
2022-07-27T02:20:58.829Z,25.80
2022-07-27T02:23:27.029Z,25.80
2022-07-27T02:25:54.790Z,25.80
2022-07-27T02:28:22.509Z,25.80
2022-07-27T02:30:51.569Z,25.80
2022-07-27T02:33:19.325Z,25.80
2022-07-27T02:35:47.322Z,25.80
2022-07-27T02:38:15.028Z,25.80
2022-07-27T02:40:42.805Z,25.80
2022-07-27T02:43:10.513Z,25.70
2022-07-27T02:45:38.212Z,25.70
2022-07-27T02:48:08.391Z,25.70
2022-07-27T02:50:36.281Z,25.70
2022-07-27T02:53:04.017Z,25.70
2022-07-27T02:55:31.680Z,25.70
2022-07-27T02:57:59.371Z,25.70
2022-07-27T03:00:27.249Z,25.70
2022-07-27T03:02:54.980Z,25.70
2022-07-27T03:05:23.992Z,25.70
2022-07-27T03:07:51.784Z,25.70
2022-07-27T03:10:19.596Z,25.70
2022-07-27T03:12:47.266Z,25.70
2022-07-27T03:15:14.966Z,25.70
2022-07-27T03:17:42.740Z,25.70
2022-07-27T03:20:14.922Z,25.70
2022-07-27T03:22:44.044Z,25.70
2022-07-27T03:25:12.387Z,25.70
2022-07-27T03:27:40.092Z,25.60
2022-07-27T03:30:09.265Z,25.60
2022-07-27T03:32:36.948Z,25.60
2022-07-27T03:35:05.124Z,25.60
2022-07-27T03:37:32.799Z,25.60
2022-07-27T03:40:01.823Z,25.60
2022-07-27T03:42:29.565Z,25.60
2022-07-27T03:44:57.244Z,25.60
2022-07-27T03:47:25.766Z,25.60
2022-07-27T03:49:53.659Z,25.60
2022-07-27T03:52:21.432Z,25.60
2022-07-27T03:54:49.112Z,25.60
2022-07-27T03:57:18.130Z,25.60
2022-07-27T03:59:45.859Z,25.60
2022-07-27T04:02:13.627Z,25.60
2022-07-27T04:04:41.357Z,25.60
2022-07-27T04:07:09.056Z,25.60
2022-07-27T04:09:37.552Z,25.60
2022-07-27T04:12:07.501Z,25.60
2022-07-27T04:14:36.545Z,25.60
2022-07-27T04:17:04.515Z,25.60
2022-07-27T04:19:32.651Z,25.60
2022-07-27T04:22:00.920Z,25.70
2022-07-27T04:24:29.530Z,25.70
2022-07-27T04:26:57.688Z,25.60
2022-07-27T04:29:25.962Z,25.70
2022-07-27T04:31:55.567Z,25.70
2022-07-27T04:34:23.635Z,25.70
2022-07-27T04:36:51.618Z,25.70
2022-07-27T04:39:20.413Z,25.60
2022-07-27T04:41:48.575Z,25.70
2022-07-27T04:44:16.759Z,25.70
2022-07-27T04:46:44.825Z,25.70
2022-07-27T04:49:14.690Z,25.70
2022-07-27T04:51:44.247Z,25.70
2022-07-27T04:54:12.506Z,25.70
2022-07-27T04:56:40.314Z,25.60
2022-07-27T04:59:08.543Z,25.60
2022-07-27T05:01:37.050Z,25.60
2022-07-27T05:04:05.474Z,25.60
2022-07-27T05:06:34.577Z,25.60
2022-07-27T05:09:02.578Z,25.70
2022-07-27T05:11:30.724Z,25.70
2022-07-27T05:13:58.911Z,25.70
2022-07-27T05:16:29.146Z,25.60
2022-07-27T05:18:57.364Z,25.60
2022-07-27T05:21:25.200Z,25.70
2022-07-27T05:23:54.372Z,25.70
2022-07-27T05:26:23.063Z,25.70
2022-07-27T05:28:50.774Z,25.60
2022-07-27T05:31:18.570Z,25.70
2022-07-27T05:33:48.763Z,25.70
2022-07-27T05:36:18.266Z,25.60
2022-07-27T05:38:45.943Z,25.70
2022-07-27T05:41:14.946Z,25.70
2022-07-27T05:43:42.653Z,25.70
2022-07-27T05:46:10.501Z,25.60
2022-07-27T05:48:38.363Z,25.70
2022-07-27T05:51:06.147Z,25.70
2022-07-27T05:53:33.871Z,25.70
2022-07-27T05:56:01.589Z,25.70
2022-07-27T05:58:30.887Z,25.70
2022-07-27T06:00:58.616Z,25.70
2022-07-27T06:03:26.542Z,25.70
2022-07-27T06:06:14.348Z,25.70
2022-07-27T06:08:41.204Z,25.70
2022-07-27T06:11:08.886Z,25.70
2022-07-27T06:13:38.374Z,25.70
2022-07-27T06:16:10.425Z,25.70
2022-07-27T06:18:38.228Z,25.70
2022-07-27T06:21:06.036Z,25.70
2022-07-27T06:23:33.715Z,25.70
2022-07-27T06:26:01.655Z,25.60
2022-07-27T06:28:29.359Z,25.60
2022-07-27T06:30:58.339Z,25.60
2022-07-27T06:33:29.263Z,25.60
2022-07-27T06:35:57.516Z,25.60
2022-07-27T06:38:25.962Z,25.60
2022-07-27T06:40:54.054Z,25.60
2022-07-27T06:43:21.875Z,25.60
2022-07-27T06:45:49.670Z,25.60
2022-07-27T06:48:18.692Z,25.60
2022-07-27T06:50:46.397Z,25.70
2022-07-27T06:53:16.609Z,25.70
2022-07-27T06:55:48.200Z,25.60
2022-07-27T06:58:15.904Z,25.70
2022-07-27T07:00:44.296Z,25.70
2022-07-27T07:03:12.187Z,25.70
2022-07-27T07:05:44.187Z,25.70
2022-07-27T07:08:12.382Z,25.70
2022-07-27T07:10:40.648Z,25.70
2022-07-27T07:13:08.672Z,25.70
2022-07-27T07:15:36.767Z,25.70
2022-07-27T07:18:04.656Z,25.70
2022-07-27T07:20:32.472Z,25.70
2022-07-27T07:23:01.723Z,25.70
2022-07-27T07:25:29.924Z,25.70
2022-07-27T07:27:57.728Z,25.70
2022-07-27T07:30:25.545Z,25.70
2022-07-27T07:32:53.322Z,25.70
2022-07-27T07:35:21.029Z,25.70
2022-07-27T07:37:50.688Z,25.70
2022-07-27T07:43:08.156Z,25.80
2022-07-27T07:45:37.987Z,25.80
2022-07-27T07:48:17.822Z,25.80
2022-07-27T07:50:45.549Z,25.80
2022-07-27T07:53:14.965Z,25.80
2022-07-27T07:55:43.992Z,25.80
2022-07-27T07:58:11.713Z,25.80
2022-07-27T08:00:39.425Z,25.80
2022-07-27T08:03:07.276Z,25.80
2022-07-27T08:05:35.347Z,25.80
2022-07-27T08:08:03.011Z,25.80
2022-07-27T08:10:30.723Z,25.80
2022-07-27T08:12:59.939Z,25.80
2022-07-27T08:15:34.689Z,25.90
2022-07-27T08:18:03.292Z,25.90
2022-07-27T08:20:31.020Z,25.80
2022-07-27T08:22:58.845Z,25.80
2022-07-27T08:25:26.850Z,25.80
2022-07-27T08:27:55.558Z,25.80
2022-07-27T08:30:26.041Z,25.70
2022-07-27T08:32:55.241Z,25.70
2022-07-27T08:35:24.256Z,25.70
2022-07-27T08:37:52.646Z,25.70
2022-07-27T08:43:09.219Z,25.70
2022-07-27T08:45:38.874Z,25.70
2022-07-27T08:48:07.861Z,25.70
2022-07-27T08:50:35.931Z,25.80
2022-07-27T08:53:05.865Z,25.80
2022-07-27T08:55:35.260Z,25.90
2022-07-27T08:58:04.184Z,25.90
2022-07-27T09:00:32.518Z,25.90
2022-07-27T09:03:02.172Z,25.90
2022-07-27T09:05:37.822Z,25.90
2022-07-27T09:08:12.924Z,26.00
2022-07-27T09:10:41.005Z,26.00
2022-07-27T09:13:23.302Z,26.00
2022-07-27T09:18:41.967Z,26.10
2022-07-27T09:21:14.708Z,26.10
2022-07-27T09:23:45.847Z,26.10
2022-07-27T09:26:30.290Z,26.10
2022-07-27T09:29:00.816Z,26.10
2022-07-27T09:31:28.810Z,26.10
2022-07-27T09:33:59.378Z,26.10
2022-07-27T09:36:28.000Z,26.20
2022-07-27T09:39:00.145Z,26.10
2022-07-27T09:41:39.854Z,26.10
2022-07-27T09:46:55.416Z,26.10
2022-07-27T09:49:32.072Z,26.10
2022-07-27T09:52:01.917Z,26.10
2022-07-27T09:54:42.174Z,26.10
2022-07-27T09:57:10.126Z,26.10
2022-07-27T09:59:37.816Z,26.10
2022-07-27T10:02:05.661Z,26.10
2022-07-27T10:04:35.059Z,26.10
2022-07-27T10:07:05.444Z,26.10
2022-07-27T10:09:34.996Z,26.10
2022-07-27T10:12:04.430Z,26.00
2022-07-27T10:14:32.513Z,26.10
2022-07-27T10:17:00.201Z,26.00
2022-07-27T10:19:31.585Z,26.00
2022-07-27T10:22:00.603Z,26.00
2022-07-27T10:24:31.444Z,26.00
2022-07-27T10:26:59.173Z,26.00
2022-07-27T10:29:26.928Z,26.10
2022-07-27T10:31:59.171Z,26.20
2022-07-27T10:34:37.419Z,26.20
2022-07-27T10:37:13.160Z,26.10
2022-07-27T10:39:42.987Z,26.10
2022-07-27T10:42:21.129Z,26.10
2022-07-27T10:44:56.357Z,26.10
2022-07-27T10:47:32.188Z,26.10
2022-07-27T10:50:25.855Z,26.20
2022-07-27T10:52:55.624Z,26.20
2022-07-27T10:55:45.548Z,26.10
2022-07-27T10:58:43.635Z,26.20
2022-07-27T11:01:14.694Z,26.10
2022-07-27T11:03:47.404Z,26.10
2022-07-27T11:07:00.288Z,26.10
2022-07-27T11:11:58.303Z,26.20
2022-07-27T11:14:30.956Z,26.20
2022-07-27T11:17:17.193Z,26.10
2022-07-27T11:19:52.343Z,26.10
2022-07-27T11:22:50.098Z,26.10
2022-07-27T11:25:19.248Z,26.00
2022-07-27T11:27:48.892Z,25.90
2022-07-27T11:30:23.457Z,25.90
2022-07-27T11:32:51.257Z,26.00
2022-07-27T11:35:20.348Z,25.90
2022-07-27T11:37:59.060Z,25.90
2022-07-27T11:43:33.569Z,25.80
2022-07-27T11:46:12.973Z,25.70
2022-07-27T11:49:05.909Z,25.70
2022-07-27T11:51:35.245Z,25.60
2022-07-27T11:54:03.856Z,25.60
2022-07-27T11:56:34.464Z,25.40
2022-07-27T11:59:08.116Z,25.40
2022-07-27T12:01:36.743Z,25.20
2022-07-27T12:04:13.042Z,25.10
2022-07-27T12:06:41.956Z,25.10
2022-07-27T12:09:11.151Z,25.00
2022-07-27T12:11:58.181Z,25.00
2022-07-27T12:14:45.736Z,24.90
2022-07-27T12:17:27.615Z,24.80
2022-07-27T12:20:00.221Z,24.80
2022-07-27T12:22:29.798Z,24.50
2022-07-27T12:24:57.819Z,24.50
2022-07-27T12:27:27.366Z,24.50
2022-07-27T12:29:58.847Z,24.50
2022-07-27T12:32:26.619Z,24.50
2022-07-27T12:34:54.646Z,24.70
2022-07-27T12:37:22.591Z,24.80
2022-07-27T12:39:50.687Z,24.90
2022-07-27T12:42:18.445Z,24.90
2022-07-27T12:44:47.675Z,25.00
2022-07-27T12:47:33.014Z,25.10
2022-07-27T12:50:05.225Z,25.10
2022-07-27T12:52:33.397Z,25.20
2022-07-27T12:55:01.125Z,25.20
2022-07-27T12:57:53.884Z,25.40
2022-07-27T13:00:23.253Z,25.40
2022-07-27T13:02:51.200Z,25.50
2022-07-27T13:05:19.304Z,25.50
2022-07-27T13:07:47.715Z,25.50
2022-07-27T13:10:18.211Z,25.60
2022-07-27T13:12:46.070Z,25.40
2022-07-27T13:15:14.008Z,25.30
2022-07-27T13:17:43.401Z,25.20
2022-07-27T13:20:12.457Z,25.10
2022-07-27T13:22:41.033Z,25.00
2022-07-27T13:25:16.075Z,24.90
2022-07-27T13:27:45.066Z,24.90
2022-07-27T13:30:14.281Z,24.90
2022-07-27T13:32:43.503Z,24.80
2022-07-27T13:35:12.591Z,24.80
2022-07-27T13:37:40.411Z,24.70
2022-07-27T13:40:09.711Z,24.80
2022-07-27T13:42:37.524Z,24.90
2022-07-27T13:45:11.035Z,24.90
2022-07-27T13:47:39.385Z,25.00
2022-07-27T13:50:15.106Z,25.10
2022-07-27T13:52:46.023Z,25.10
2022-07-27T13:55:14.694Z,25.20
2022-07-27T13:57:42.529Z,25.20
2022-07-27T14:00:11.434Z,25.20
2022-07-27T14:02:39.558Z,25.20
2022-07-27T14:05:09.550Z,25.30
2022-07-27T14:07:40.926Z,25.20
2022-07-27T14:10:38.688Z,25.10
2022-07-27T14:13:08.845Z,25.00
2022-07-27T14:15:53.170Z,24.90
2022-07-27T14:18:25.196Z,24.90
2022-07-27T14:20:54.593Z,24.80
2022-07-27T14:23:22.411Z,24.80
2022-07-27T14:25:50.216Z,24.80
2022-07-27T14:28:18.255Z,24.80
2022-07-27T14:30:46.074Z,24.70
2022-07-27T14:33:13.778Z,24.70
2022-07-27T14:35:41.601Z,24.60
2022-07-27T14:38:10.744Z,24.50
2022-07-27T14:40:38.577Z,24.40
2022-07-27T14:43:06.496Z,24.40
2022-07-27T14:45:44.641Z,24.30
2022-07-27T14:48:20.414Z,24.30
2022-07-27T14:50:50.981Z,24.30
2022-07-27T14:53:20.010Z,24.10
2022-07-27T14:55:47.744Z,24.10
2022-07-27T14:58:15.536Z,24.10
2022-07-27T15:00:43.435Z,24.00
2022-07-27T15:03:14.616Z,24.20
2022-07-27T15:05:49.923Z,24.20
2022-07-27T15:08:20.326Z,24.20
2022-07-27T15:10:48.148Z,24.30
2022-07-27T15:13:15.847Z,24.20
2022-07-27T15:15:43.858Z,24.20
2022-07-27T15:18:11.648Z,24.20
2022-07-27T15:20:39.383Z,24.10
2022-07-27T15:23:07.172Z,24.20
2022-07-27T15:25:36.320Z,24.20
2022-07-27T15:28:04.273Z,24.30
2022-07-27T15:30:37.836Z,24.30
2022-07-27T15:33:06.524Z,24.40
2022-07-27T15:35:34.267Z,24.40
2022-07-27T15:38:01.942Z,24.40
2022-07-27T15:40:39.122Z,24.50
2022-07-27T15:43:10.589Z,24.60
2022-07-27T15:45:39.164Z,24.70
2022-07-27T15:48:08.291Z,24.70
2022-07-27T15:50:36.078Z,24.70
2022-07-27T15:53:03.908Z,24.80
2022-07-27T15:55:31.601Z,24.80
2022-07-27T15:57:59.320Z,24.80
2022-07-27T16:00:28.771Z,24.80
2022-07-27T16:02:56.902Z,24.80
2022-07-27T16:05:24.708Z,24.80
2022-07-27T16:07:52.450Z,24.80
2022-07-27T16:10:20.178Z,24.90
2022-07-27T16:12:47.949Z,24.90
2022-07-27T16:15:15.624Z,24.80
2022-07-27T16:17:44.743Z,24.90
2022-07-27T16:20:13.335Z,24.80
2022-07-27T16:22:41.176Z,24.80
2022-07-27T16:25:08.901Z,24.80
2022-07-27T16:27:36.717Z,24.90
2022-07-27T16:30:05.171Z,24.90
2022-07-27T16:32:33.155Z,24.90
2022-07-27T16:35:02.208Z,24.90
2022-07-27T16:37:37.937Z,24.90
2022-07-27T16:40:06.706Z,24.90
2022-07-27T16:42:37.954Z,25.00
2022-07-27T16:45:07.025Z,25.00
2022-07-27T16:47:34.756Z,24.90
2022-07-27T16:50:03.886Z,24.90
2022-07-27T16:52:31.669Z,24.90
2022-07-27T16:54:59.435Z,25.00
2022-07-27T16:57:27.268Z,24.90
2022-07-27T16:59:55.325Z,24.90
2022-07-27T17:02:23.205Z,24.90
2022-07-27T17:04:51.838Z,24.90
2022-07-27T17:07:20.926Z,24.90
2022-07-27T17:09:48.685Z,24.90
2022-07-27T17:12:17.252Z,24.90
2022-07-27T17:14:46.005Z,24.90
2022-07-27T17:17:14.544Z,25.00
2022-07-27T17:19:42.348Z,25.00
2022-07-27T17:22:10.031Z,25.00
2022-07-27T17:24:39.121Z,25.00
2022-07-27T17:27:06.913Z,25.10
2022-07-27T17:29:34.690Z,25.10
2022-07-27T17:32:02.395Z,25.10
2022-07-27T17:34:30.166Z,25.10
2022-07-27T17:36:57.901Z,25.10
2022-07-27T17:39:25.607Z,25.10
2022-07-27T17:41:55.889Z,25.10
2022-07-27T17:44:23.598Z,25.10
2022-07-27T17:46:51.399Z,25.10
2022-07-27T17:49:19.549Z,25.10
2022-07-27T17:51:47.357Z,25.00
2022-07-27T17:54:15.072Z,25.00
2022-07-27T17:56:42.748Z,25.00
2022-07-27T17:59:35.890Z,25.00
2022-07-27T18:02:01.155Z,25.00
2022-07-27T18:04:29.428Z,25.00
2022-07-27T18:06:57.134Z,25.00
2022-07-27T18:09:24.833Z,25.00
2022-07-27T18:11:52.713Z,24.90
2022-07-27T18:14:21.744Z,25.00
2022-07-27T18:16:49.441Z,24.90
2022-07-27T18:19:17.362Z,24.90
2022-07-27T18:21:45.198Z,24.90
2022-07-27T18:24:12.951Z,24.90
2022-07-27T18:26:40.704Z,24.90
2022-07-27T18:29:08.486Z,24.90
2022-07-27T18:31:37.550Z,24.90
2022-07-27T18:34:09.282Z,24.90
2022-07-27T18:36:42.300Z,24.90
2022-07-27T18:39:10.419Z,24.80
2022-07-27T18:41:40.437Z,24.90
2022-07-27T18:44:08.126Z,24.80
2022-07-27T18:46:37.228Z,24.80
2022-07-27T18:49:05.086Z,24.80
2022-07-27T18:51:32.934Z,24.80
2022-07-27T18:54:00.620Z,24.80
2022-07-27T18:56:28.313Z,24.80
2022-07-27T18:58:55.984Z,24.80
2022-07-27T19:01:23.723Z,24.80
2022-07-27T19:03:52.811Z,24.80
2022-07-27T19:06:20.519Z,24.80
2022-07-27T19:08:49.933Z,24.80
2022-07-27T19:11:17.641Z,24.80
2022-07-27T19:13:45.461Z,24.80
2022-07-27T19:16:13.159Z,24.80
2022-07-27T19:18:40.885Z,24.80
2022-07-27T19:21:09.914Z,24.80
2022-07-27T19:23:37.613Z,24.80
2022-07-27T19:26:05.353Z,24.80
2022-07-27T19:28:33.740Z,24.80
2022-07-27T19:31:01.455Z,24.90
2022-07-27T19:33:29.217Z,24.90
2022-07-27T19:35:57.961Z,24.90
2022-07-27T19:38:27.007Z,24.90
2022-07-27T19:40:55.121Z,24.90
2022-07-27T19:43:22.888Z,24.90
2022-07-27T19:45:51.960Z,24.90
2022-07-27T19:48:21.437Z,25.00
2022-07-27T19:50:49.142Z,25.00
2022-07-27T19:53:16.806Z,25.00
2022-07-27T19:55:45.875Z,25.00
2022-07-27T19:58:13.593Z,25.00
2022-07-27T20:00:41.354Z,25.10
2022-07-27T20:03:09.199Z,25.10
2022-07-27T20:05:36.936Z,25.10
2022-07-27T20:08:04.986Z,25.10
2022-07-27T20:10:32.697Z,25.20
2022-07-27T20:13:02.637Z,25.20
2022-07-27T20:15:30.418Z,25.20
2022-07-27T20:17:58.271Z,25.30
2022-07-27T20:20:25.997Z,25.30
2022-07-27T20:22:54.373Z,25.30
2022-07-27T20:25:22.758Z,25.40
2022-07-27T20:27:50.500Z,25.40
2022-07-27T20:30:19.871Z,25.40
2022-07-27T20:32:48.360Z,25.40
2022-07-27T20:35:16.137Z,25.50
2022-07-27T20:37:43.965Z,25.50
2022-07-27T20:40:12.479Z,25.50
2022-07-27T20:42:41.307Z,25.60
2022-07-27T20:45:11.011Z,25.60
2022-07-27T20:47:40.072Z,25.60
2022-07-27T20:50:08.846Z,25.60
2022-07-27T20:52:36.575Z,25.60
2022-07-27T20:55:04.650Z,25.60
2022-07-27T20:57:32.344Z,25.70
2022-07-27T21:00:00.031Z,25.70
2022-07-27T21:02:27.792Z,25.70
2022-07-27T21:04:56.853Z,25.70
2022-07-27T21:07:24.551Z,25.80
2022-07-27T21:09:52.251Z,25.80
2022-07-27T21:12:19.965Z,25.80
2022-07-27T21:14:47.733Z,25.70
2022-07-27T21:17:15.429Z,25.80
2022-07-27T21:19:43.134Z,25.90
2022-07-27T21:22:12.144Z,25.90
2022-07-27T21:24:39.855Z,25.80
2022-07-27T21:27:08.934Z,25.90
2022-07-27T21:29:36.657Z,25.90
2022-07-27T21:32:04.367Z,25.90
2022-07-27T21:34:32.081Z,26.00
2022-07-27T21:36:59.785Z,26.00
2022-07-27T21:39:28.860Z,26.00
2022-07-27T21:42:01.722Z,26.10
2022-07-27T21:44:29.975Z,26.00
2022-07-27T21:46:57.833Z,26.10
2022-07-27T21:49:30.778Z,26.10
2022-07-27T21:52:02.476Z,26.10
2022-07-27T21:54:31.551Z,26.10
2022-07-27T21:56:59.255Z,26.20
2022-07-27T21:59:26.957Z,26.20
2022-07-27T22:01:54.704Z,26.20
2022-07-27T22:04:22.683Z,26.30
2022-07-27T22:06:50.395Z,26.30
2022-07-27T22:09:19.995Z,26.30
2022-07-27T22:11:49.024Z,26.30
2022-07-27T22:14:17.154Z,26.40
2022-07-27T22:16:45.333Z,26.40
2022-07-27T22:19:14.044Z,26.40
2022-07-27T22:21:41.761Z,26.40
2022-07-27T22:24:09.611Z,26.50
2022-07-27T22:26:37.313Z,26.50
2022-07-27T22:29:06.759Z,26.60
2022-07-27T22:31:34.488Z,26.60
2022-07-27T22:34:02.189Z,26.60
2022-07-27T22:36:29.891Z,26.70
2022-07-27T22:38:57.563Z,26.70
2022-07-27T22:41:25.263Z,26.70
2022-07-27T22:43:53.267Z,26.80
2022-07-27T22:46:25.617Z,26.80
2022-07-27T22:48:53.746Z,26.90
2022-07-27T22:51:21.724Z,26.90
2022-07-27T22:53:49.450Z,26.90
2022-07-27T22:56:17.156Z,26.90
2022-07-27T22:58:44.830Z,26.90
2022-07-27T23:01:15.491Z,27.00
2022-07-27T23:04:01.548Z,27.00
2022-07-27T23:06:29.273Z,27.00
2022-07-27T23:08:56.963Z,27.10
2022-07-27T23:11:24.660Z,27.10
2022-07-27T23:13:52.340Z,27.20
2022-07-27T23:16:20.113Z,27.20
2022-07-27T23:18:47.986Z,27.20
2022-07-27T23:21:17.018Z,27.30
2022-07-27T23:23:53.306Z,27.30
2022-07-27T23:26:22.996Z,27.30
2022-07-27T23:28:53.983Z,27.30
2022-07-27T23:31:21.855Z,27.40
2022-07-27T23:33:49.618Z,27.40
2022-07-27T23:36:18.661Z,27.40
2022-07-27T23:38:46.344Z,27.50
2022-07-27T23:41:14.186Z,27.50
2022-07-27T23:43:41.944Z,27.50
2022-07-27T23:46:09.653Z,27.50
2022-07-27T23:48:37.419Z,27.60
2022-07-27T23:51:05.250Z,27.60
2022-07-27T23:53:34.290Z,27.60
2022-07-27T23:56:02.125Z,27.60
2022-07-27T23:58:29.835Z,27.70
